sensor_id;sensor_type;location;lat;lon;timestamp;P1;durP1;ratioP1;P2;durP2;ratioP2
41687;SDS011;27371;42.686;23.362;2024-01-15T00:02:14;128.35;;;62.60;;
41687;SDS011;27371;42.686;23.362;2024-01-15T00:04:40;143.75;;;72.47;;
41687;SDS011;27371;42.686;23.362;2024-01-15T00:07:06;160.15;;;78.60;;
41687;SDS011;27371;42.686;23.362;2024-01-15T00:09:31;167.75;;;85.18;;
41687;SDS011;27371;42.686;23.362;2024-01-15T00:11:56;172.00;;;86.00;;
41687;SDS011;27371;42.686;23.362;2024-01-15T00:14:22;149.48;;;75.80;;
41687;SDS011;27371;42.686;23.362;2024-01-15T00:16:47;148.55;;;74.00;;
41687;SDS011;27371;42.686;23.362;2024-01-15T00:19:15;131.43;;;70.65;;
41687;SDS011;27371;42.686;23.362;2024-01-15T00:21:40;128.13;;;64.90;;
41687;SDS011;27371;42.686;23.362;2024-01-15T00:24:06;135.43;;;64.75;;
41687;SDS011;27371;42.686;23.362;2024-01-15T00:26:31;123.63;;;62.33;;
41687;SDS011;27371;42.686;23.362;2024-01-15T00:28:57;139.63;;;70.07;;
41687;SDS011;27371;42.686;23.362;2024-01-15T00:31:22;131.07;;;67.13;;
41687;SDS011;27371;42.686;23.362;2024-01-15T00:33:47;129.73;;;66.30;;
41687;SDS011;27371;42.686;23.362;2024-01-15T00:36:13;124.55;;;64.03;;
41687;SDS011;27371;42.686;23.362;2024-01-15T00:38:39;135.38;;;67.03;;
41687;SDS011;27371;42.686;23.362;2024-01-15T00:41:04;132.30;;;67.60;;
41687;SDS011;27371;42.686;23.362;2024-01-15T00:43:30;125.57;;;66.40;;
41687;SDS011;27371;42.686;23.362;2024-01-15T00:45:55;130.18;;;66.22;;
41687;SDS011;27371;42.686;23.362;2024-01-15T00:48:21;124.15;;;64.15;;
41687;SDS011;27371;42.686;23.362;2024-01-15T00:50:46;127.63;;;64.18;;
41687;SDS011;27371;42.686;23.362;2024-01-15T00:53:12;131.20;;;66.97;;
41687;SDS011;27371;42.686;23.362;2024-01-15T00:55:37;129.13;;;64.90;;
41687;SDS011;27371;42.686;23.362;2024-01-15T00:58:03;131.10;;;67.90;;
41687;SDS011;27371;42.686;23.362;2024-01-15T01:03:03;127.80;;;62.55;;
41687;SDS011;27371;42.686;23.362;2024-01-15T01:05:29;131.38;;;63.72;;
41687;SDS011;27371;42.686;23.362;2024-01-15T01:07:54;130.32;;;62.72;;
41687;SDS011;27371;42.686;23.362;2024-01-15T01:10:19;126.93;;;64.38;;
41687;SDS011;27371;42.686;23.362;2024-01-15T01:12:45;119.13;;;62.25;;
41687;SDS011;27371;42.686;23.362;2024-01-15T01:15:10;121.05;;;65.53;;
41687;SDS011;27371;42.686;23.362;2024-01-15T01:17:36;128.90;;;67.38;;
41687;SDS011;27371;42.686;23.362;2024-01-15T01:20:01;126.20;;;66.88;;
41687;SDS011;27371;42.686;23.362;2024-01-15T01:22:29;129.85;;;67.80;;
41687;SDS011;27371;42.686;23.362;2024-01-15T01:24:54;126.75;;;67.72;;
41687;SDS011;27371;42.686;23.362;2024-01-15T01:27:20;123.30;;;65.45;;
41687;SDS011;27371;42.686;23.362;2024-01-15T01:29:46;156.85;;;78.93;;
41687;SDS011;27371;42.686;23.362;2024-01-15T01:32:11;160.15;;;80.88;;
41687;SDS011;27371;42.686;23.362;2024-01-15T01:34:39;153.80;;;76.35;;
41687;SDS011;27371;42.686;23.362;2024-01-15T01:37:06;152.77;;;79.25;;
41687;SDS011;27371;42.686;23.362;2024-01-15T01:39:32;175.18;;;85.28;;
41687;SDS011;27371;42.686;23.362;2024-01-15T01:41:57;175.48;;;87.45;;
41687;SDS011;27371;42.686;23.362;2024-01-15T01:44:23;174.77;;;89.47;;
41687;SDS011;27371;42.686;23.362;2024-01-15T01:46:49;165.82;;;84.95;;
41687;SDS011;27371;42.686;23.362;2024-01-15T01:49:14;165.73;;;79.65;;
41687;SDS011;27371;42.686;23.362;2024-01-15T01:51:40;182.90;;;88.95;;
41687;SDS011;27371;42.686;23.362;2024-01-15T01:54:05;162.38;;;76.45;;
41687;SDS011;27371;42.686;23.362;2024-01-15T01:56:31;162.75;;;80.82;;
41687;SDS011;27371;42.686;23.362;2024-01-15T01:58:57;169.80;;;82.88;;
41687;SDS011;27371;42.686;23.362;2024-01-15T02:01:23;160.88;;;79.45;;
41687;SDS011;27371;42.686;23.362;2024-01-15T02:03:48;151.35;;;74.85;;
41687;SDS011;27371;42.686;23.362;2024-01-15T02:06:13;157.45;;;73.32;;
41687;SDS011;27371;42.686;23.362;2024-01-15T02:08:39;128.27;;;59.85;;
41687;SDS011;27371;42.686;23.362;2024-01-15T02:11:04;110.00;;;54.88;;
41687;SDS011;27371;42.686;23.362;2024-01-15T02:13:30;116.57;;;56.22;;
41687;SDS011;27371;42.686;23.362;2024-01-15T02:15:55;109.47;;;54.28;;
41687;SDS011;27371;42.686;23.362;2024-01-15T02:18:21;112.18;;;53.47;;
41687;SDS011;27371;42.686;23.362;2024-01-15T02:20:46;126.43;;;62.65;;
41687;SDS011;27371;42.686;23.362;2024-01-15T02:23:13;123.13;;;60.88;;
41687;SDS011;27371;42.686;23.362;2024-01-15T02:25:39;121.00;;;58.90;;
41687;SDS011;27371;42.686;23.362;2024-01-15T02:28:05;119.00;;;58.20;;
41687;SDS011;27371;42.686;23.362;2024-01-15T02:30:31;121.65;;;60.75;;
41687;SDS011;27371;42.686;23.362;2024-01-15T02:32:56;107.30;;;54.20;;
41687;SDS011;27371;42.686;23.362;2024-01-15T02:35:22;97.72;;;50.63;;
41687;SDS011;27371;42.686;23.362;2024-01-15T02:37:47;93.50;;;47.83;;
41687;SDS011;27371;42.686;23.362;2024-01-15T02:40:12;91.25;;;43.13;;
41687;SDS011;27371;42.686;23.362;2024-01-15T02:42:38;86.00;;;42.67;;
41687;SDS011;27371;42.686;23.362;2024-01-15T02:45:03;89.60;;;45.22;;
41687;SDS011;27371;42.686;23.362;2024-01-15T02:47:29;96.45;;;44.28;;
41687;SDS011;27371;42.686;23.362;2024-01-15T02:49:54;100.57;;;46.45;;
41687;SDS011;27371;42.686;23.362;2024-01-15T02:52:20;99.03;;;49.20;;
41687;SDS011;27371;42.686;23.362;2024-01-15T02:54:45;94.65;;;46.40;;
41687;SDS011;27371;42.686;23.362;2024-01-15T02:57:11;74.15;;;34.95;;
41687;SDS011;27371;42.686;23.362;2024-01-15T02:59:36;59.78;;;29.58;;
41687;SDS011;27371;42.686;23.362;2024-01-15T03:02:01;55.67;;;26.00;;
41687;SDS011;27371;42.686;23.362;2024-01-15T03:04:27;47.00;;;24.45;;
41687;SDS011;27371;42.686;23.362;2024-01-15T03:06:52;48.97;;;24.10;;
41687;SDS011;27371;42.686;23.362;2024-01-15T03:09:17;46.58;;;22.95;;
41687;SDS011;27371;42.686;23.362;2024-01-15T03:11:44;46.97;;;23.13;;
41687;SDS011;27371;42.686;23.362;2024-01-15T03:14:10;41.08;;;21.88;;
41687;SDS011;27371;42.686;23.362;2024-01-15T03:16:35;47.05;;;22.40;;
41687;SDS011;27371;42.686;23.362;2024-01-15T03:19:01;44.30;;;22.85;;
41687;SDS011;27371;42.686;23.362;2024-01-15T03:21:26;54.20;;;26.13;;
41687;SDS011;27371;42.686;23.362;2024-01-15T03:23:51;56.95;;;27.55;;
41687;SDS011;27371;42.686;23.362;2024-01-15T03:26:17;56.15;;;27.20;;
41687;SDS011;27371;42.686;23.362;2024-01-15T03:28:42;47.63;;;22.55;;
41687;SDS011;27371;42.686;23.362;2024-01-15T03:31:08;43.05;;;21.48;;
41687;SDS011;27371;42.686;23.362;2024-01-15T03:33:33;43.28;;;19.50;;
41687;SDS011;27371;42.686;23.362;2024-01-15T03:35:59;39.72;;;18.50;;
41687;SDS011;27371;42.686;23.362;2024-01-15T03:38:24;36.42;;;17.95;;
41687;SDS011;27371;42.686;23.362;2024-01-15T03:40:50;35.65;;;17.88;;
41687;SDS011;27371;42.686;23.362;2024-01-15T03:43:15;35.97;;;18.48;;
41687;SDS011;27371;42.686;23.362;2024-01-15T03:45:40;41.95;;;20.15;;
41687;SDS011;27371;42.686;23.362;2024-01-15T03:48:06;34.67;;;19.35;;
41687;SDS011;27371;42.686;23.362;2024-01-15T03:50:31;35.75;;;19.38;;
41687;SDS011;27371;42.686;23.362;2024-01-15T03:52:57;44.47;;;20.70;;
41687;SDS011;27371;42.686;23.362;2024-01-15T03:55:22;40.28;;;20.15;;
41687;SDS011;27371;42.686;23.362;2024-01-15T03:57:47;39.63;;;20.67;;
41687;SDS011;27371;42.686;23.362;2024-01-15T04:00:14;37.20;;;19.23;;
41687;SDS011;27371;42.686;23.362;2024-01-15T04:02:39;40.53;;;19.20;;
41687;SDS011;27371;42.686;23.362;2024-01-15T04:05:05;38.15;;;19.27;;
41687;SDS011;27371;42.686;23.362;2024-01-15T04:07:30;36.22;;;19.55;;
41687;SDS011;27371;42.686;23.362;2024-01-15T04:09:56;39.90;;;19.67;;
41687;SDS011;27371;42.686;23.362;2024-01-15T04:12:21;33.47;;;18.45;;
41687;SDS011;27371;42.686;23.362;2024-01-15T04:14:46;37.63;;;20.40;;
41687;SDS011;27371;42.686;23.362;2024-01-15T04:17:12;37.67;;;19.85;;
41687;SDS011;27371;42.686;23.362;2024-01-15T04:19:37;36.63;;;18.90;;
41687;SDS011;27371;42.686;23.362;2024-01-15T04:22:03;37.70;;;19.35;;
41687;SDS011;27371;42.686;23.362;2024-01-15T04:24:28;37.28;;;19.30;;
41687;SDS011;27371;42.686;23.362;2024-01-15T04:26:53;39.78;;;20.38;;
41687;SDS011;27371;42.686;23.362;2024-01-15T04:29:19;37.53;;;20.48;;
41687;SDS011;27371;42.686;23.362;2024-01-15T04:31:44;34.13;;;20.20;;
41687;SDS011;27371;42.686;23.362;2024-01-15T04:34:10;38.75;;;20.02;;
41687;SDS011;27371;42.686;23.362;2024-01-15T04:36:39;38.00;;;20.38;;
41687;SDS011;27371;42.686;23.362;2024-01-15T04:39:05;38.83;;;21.55;;
41687;SDS011;27371;42.686;23.362;2024-01-15T04:41:30;38.53;;;20.02;;
41687;SDS011;27371;42.686;23.362;2024-01-15T04:43:56;39.15;;;20.00;;
41687;SDS011;27371;42.686;23.362;2024-01-15T04:46:21;36.10;;;20.13;;
41687;SDS011;27371;42.686;23.362;2024-01-15T04:48:46;41.50;;;21.55;;
41687;SDS011;27371;42.686;23.362;2024-01-15T04:51:12;41.03;;;21.65;;
41687;SDS011;27371;42.686;23.362;2024-01-15T04:53:37;47.40;;;24.30;;
41687;SDS011;27371;42.686;23.362;2024-01-15T04:56:03;43.92;;;22.65;;
41687;SDS011;27371;42.686;23.362;2024-01-15T04:58:28;43.35;;;23.83;;
41687;SDS011;27371;42.686;23.362;2024-01-15T05:00:54;47.47;;;23.85;;
41687;SDS011;27371;42.686;23.362;2024-01-15T05:03:19;41.88;;;22.15;;
41687;SDS011;27371;42.686;23.362;2024-01-15T05:05:45;44.65;;;23.98;;
41687;SDS011;27371;42.686;23.362;2024-01-15T05:08:10;43.90;;;22.60;;
41687;SDS011;27371;42.686;23.362;2024-01-15T05:10:36;42.38;;;22.73;;
41687;SDS011;27371;42.686;23.362;2024-01-15T05:13:02;43.35;;;23.25;;
41687;SDS011;27371;42.686;23.362;2024-01-15T05:15:27;41.65;;;23.70;;
41687;SDS011;27371;42.686;23.362;2024-01-15T05:17:53;44.75;;;23.92;;
41687;SDS011;27371;42.686;23.362;2024-01-15T05:20:18;44.65;;;24.85;;
41687;SDS011;27371;42.686;23.362;2024-01-15T05:22:43;58.55;;;29.73;;
41687;SDS011;27371;42.686;23.362;2024-01-15T05:25:09;56.05;;;28.20;;
41687;SDS011;27371;42.686;23.362;2024-01-15T05:27:34;60.53;;;31.40;;
41687;SDS011;27371;42.686;23.362;2024-01-15T05:29:59;65.22;;;31.80;;
41687;SDS011;27371;42.686;23.362;2024-01-15T05:32:25;57.67;;;29.80;;
41687;SDS011;27371;42.686;23.362;2024-01-15T05:34:50;50.22;;;27.85;;
41687;SDS011;27371;42.686;23.362;2024-01-15T05:37:15;62.25;;;30.75;;
41687;SDS011;27371;42.686;23.362;2024-01-15T05:39:41;54.03;;;29.08;;
41687;SDS011;27371;42.686;23.362;2024-01-15T05:42:06;45.78;;;23.98;;
41687;SDS011;27371;42.686;23.362;2024-01-15T05:44:31;50.00;;;26.05;;
41687;SDS011;27371;42.686;23.362;2024-01-15T05:46:57;49.47;;;25.05;;
41687;SDS011;27371;42.686;23.362;2024-01-15T05:49:22;44.60;;;24.63;;
41687;SDS011;27371;42.686;23.362;2024-01-15T05:51:48;60.72;;;30.05;;
41687;SDS011;27371;42.686;23.362;2024-01-15T05:54:13;62.58;;;28.60;;
41687;SDS011;27371;42.686;23.362;2024-01-15T05:56:38;51.25;;;28.33;;
41687;SDS011;27371;42.686;23.362;2024-01-15T05:59:04;55.85;;;27.40;;
41687;SDS011;27371;42.686;23.362;2024-01-15T06:01:29;54.15;;;27.65;;
41687;SDS011;27371;42.686;23.362;2024-01-15T06:03:55;50.80;;;26.73;;
41687;SDS011;27371;42.686;23.362;2024-01-15T06:06:20;52.58;;;26.10;;
41687;SDS011;27371;42.686;23.362;2024-01-15T06:08:45;51.88;;;26.48;;
41687;SDS011;27371;42.686;23.362;2024-01-15T06:11:11;56.15;;;26.73;;
41687;SDS011;27371;42.686;23.362;2024-01-15T06:13:36;49.70;;;26.45;;
41687;SDS011;27371;42.686;23.362;2024-01-15T06:16:01;51.28;;;27.27;;
41687;SDS011;27371;42.686;23.362;2024-01-15T06:18:27;53.28;;;27.80;;
41687;SDS011;27371;42.686;23.362;2024-01-15T06:20:53;59.05;;;29.55;;
41687;SDS011;27371;42.686;23.362;2024-01-15T06:23:18;63.53;;;31.50;;
41687;SDS011;27371;42.686;23.362;2024-01-15T06:25:43;62.05;;;28.85;;
41687;SDS011;27371;42.686;23.362;2024-01-15T06:28:09;58.75;;;30.60;;
41687;SDS011;27371;42.686;23.362;2024-01-15T06:30:34;55.15;;;30.42;;
41687;SDS011;27371;42.686;23.362;2024-01-15T06:38:27;64.18;;;33.00;;
41687;SDS011;27371;42.686;23.362;2024-01-15T06:40:53;64.38;;;31.98;;
41687;SDS011;27371;42.686;23.362;2024-01-15T06:43:18;67.78;;;31.77;;
41687;SDS011;27371;42.686;23.362;2024-01-15T06:45:44;59.20;;;32.63;;
41687;SDS011;27371;42.686;23.362;2024-01-15T06:48:09;66.25;;;34.50;;
41687;SDS011;27371;42.686;23.362;2024-01-15T06:50:35;70.55;;;34.90;;
41687;SDS011;27371;42.686;23.362;2024-01-15T06:53:00;63.35;;;35.40;;
41687;SDS011;27371;42.686;23.362;2024-01-15T06:55:26;63.45;;;35.55;;
41687;SDS011;27371;42.686;23.362;2024-01-15T06:57:51;64.32;;;34.72;;
41687;SDS011;27371;42.686;23.362;2024-01-15T07:00:17;64.40;;;34.55;;
41687;SDS011;27371;42.686;23.362;2024-01-15T07:02:44;66.25;;;34.85;;
41687;SDS011;27371;42.686;23.362;2024-01-15T07:05:09;63.63;;;34.10;;
41687;SDS011;27371;42.686;23.362;2024-01-15T07:07:36;67.97;;;36.90;;
41687;SDS011;27371;42.686;23.362;2024-01-15T07:10:01;66.55;;;35.40;;
41687;SDS011;27371;42.686;23.362;2024-01-15T07:12:27;67.10;;;36.00;;
41687;SDS011;27371;42.686;23.362;2024-01-15T07:14:52;74.55;;;37.35;;
41687;SDS011;27371;42.686;23.362;2024-01-15T07:17:18;68.05;;;36.08;;
41687;SDS011;27371;42.686;23.362;2024-01-15T07:19:43;63.55;;;34.13;;
41687;SDS011;27371;42.686;23.362;2024-01-15T07:22:08;67.72;;;35.40;;
41687;SDS011;27371;42.686;23.362;2024-01-15T07:24:34;66.90;;;35.72;;
41687;SDS011;27371;42.686;23.362;2024-01-15T07:27:00;67.50;;;36.08;;
41687;SDS011;27371;42.686;23.362;2024-01-15T07:29:25;69.82;;;35.22;;
41687;SDS011;27371;42.686;23.362;2024-01-15T07:31:51;64.88;;;35.67;;
41687;SDS011;27371;42.686;23.362;2024-01-15T07:34:16;62.58;;;35.20;;
41687;SDS011;27371;42.686;23.362;2024-01-15T07:36:43;78.57;;;38.20;;
41687;SDS011;27371;42.686;23.362;2024-01-15T07:39:09;82.13;;;43.35;;
41687;SDS011;27371;42.686;23.362;2024-01-15T07:41:34;86.35;;;45.75;;
41687;SDS011;27371;42.686;23.362;2024-01-15T07:44:00;83.47;;;45.30;;
41687;SDS011;27371;42.686;23.362;2024-01-15T07:46:25;83.95;;;45.60;;
41687;SDS011;27371;42.686;23.362;2024-01-15T07:48:51;89.18;;;48.55;;
41687;SDS011;27371;42.686;23.362;2024-01-15T07:51:21;88.55;;;47.85;;
41687;SDS011;27371;42.686;23.362;2024-01-15T07:53:46;93.95;;;51.25;;
41687;SDS011;27371;42.686;23.362;2024-01-15T07:56:12;104.38;;;57.40;;
41687;SDS011;27371;42.686;23.362;2024-01-15T07:58:37;135.75;;;72.18;;
41687;SDS011;27371;42.686;23.362;2024-01-15T08:01:02;134.00;;;70.07;;
41687;SDS011;27371;42.686;23.362;2024-01-15T08:03:28;152.90;;;82.85;;
41687;SDS011;27371;42.686;23.362;2024-01-15T08:05:53;177.23;;;97.53;;
41687;SDS011;27371;42.686;23.362;2024-01-15T08:08:19;177.07;;;100.68;;
41687;SDS011;27371;42.686;23.362;2024-01-15T08:10:46;180.70;;;102.15;;
41687;SDS011;27371;42.686;23.362;2024-01-15T08:13:11;169.95;;;95.22;;
41687;SDS011;27371;42.686;23.362;2024-01-15T08:15:37;165.13;;;94.53;;
41687;SDS011;27371;42.686;23.362;2024-01-15T08:18:02;154.63;;;91.07;;
41687;SDS011;27371;42.686;23.362;2024-01-15T08:20:28;160.75;;;89.43;;
41687;SDS011;27371;42.686;23.362;2024-01-15T08:22:53;145.07;;;82.50;;
41687;SDS011;27371;42.686;23.362;2024-01-15T08:25:19;136.52;;;77.47;;
41687;SDS011;27371;42.686;23.362;2024-01-15T08:27:44;133.93;;;74.85;;
41687;SDS011;27371;42.686;23.362;2024-01-15T08:30:10;137.05;;;77.93;;
41687;SDS011;27371;42.686;23.362;2024-01-15T08:32:35;128.27;;;72.57;;
41687;SDS011;27371;42.686;23.362;2024-01-15T08:35:05;127.00;;;70.60;;
41687;SDS011;27371;42.686;23.362;2024-01-15T08:37:31;130.80;;;68.60;;
41687;SDS011;27371;42.686;23.362;2024-01-15T08:39:56;115.18;;;65.32;;
41687;SDS011;27371;42.686;23.362;2024-01-15T08:42:22;108.63;;;59.97;;
41687;SDS011;27371;42.686;23.362;2024-01-15T08:44:47;106.93;;;58.72;;
41687;SDS011;27371;42.686;23.362;2024-01-15T08:47:12;98.85;;;57.80;;
41687;SDS011;27371;42.686;23.362;2024-01-15T08:49:38;103.40;;;58.30;;
41687;SDS011;27371;42.686;23.362;2024-01-15T08:52:04;96.50;;;54.42;;
41687;SDS011;27371;42.686;23.362;2024-01-15T08:54:30;96.03;;;54.42;;
41687;SDS011;27371;42.686;23.362;2024-01-15T08:56:55;84.53;;;48.33;;
41687;SDS011;27371;42.686;23.362;2024-01-15T08:59:20;82.45;;;47.10;;
41687;SDS011;27371;42.686;23.362;2024-01-15T09:01:50;75.15;;;42.55;;
41687;SDS011;27371;42.686;23.362;2024-01-15T09:04:15;67.28;;;37.97;;
41687;SDS011;27371;42.686;23.362;2024-01-15T09:06:40;52.85;;;30.35;;
41687;SDS011;27371;42.686;23.362;2024-01-15T09:09:07;39.78;;;24.83;;
41687;SDS011;27371;42.686;23.362;2024-01-15T09:11:32;39.95;;;21.98;;
41687;SDS011;27371;42.686;23.362;2024-01-15T09:13:58;45.67;;;24.48;;
41687;SDS011;27371;42.686;23.362;2024-01-15T09:16:24;50.00;;;26.85;;
41687;SDS011;27371;42.686;23.362;2024-01-15T09:18:49;51.55;;;30.25;;
41687;SDS011;27371;42.686;23.362;2024-01-15T09:21:14;52.17;;;30.73;;
41687;SDS011;27371;42.686;23.362;2024-01-15T09:23:40;60.30;;;33.90;;
41687;SDS011;27371;42.686;23.362;2024-01-15T09:26:07;57.15;;;31.65;;
41687;SDS011;27371;42.686;23.362;2024-01-15T09:28:32;58.83;;;32.25;;
41687;SDS011;27371;42.686;23.362;2024-01-15T09:30:58;62.92;;;35.72;;
41687;SDS011;27371;42.686;23.362;2024-01-15T09:33:23;55.15;;;31.17;;
41687;SDS011;27371;42.686;23.362;2024-01-15T09:35:49;51.40;;;25.55;;
41687;SDS011;27371;42.686;23.362;2024-01-15T09:38:14;54.40;;;30.60;;
41687;SDS011;27371;42.686;23.362;2024-01-15T09:40:40;53.60;;;29.13;;
41687;SDS011;27371;42.686;23.362;2024-01-15T09:43:08;52.17;;;28.00;;
41687;SDS011;27371;42.686;23.362;2024-01-15T09:45:33;53.28;;;27.40;;
41687;SDS011;27371;42.686;23.362;2024-01-15T09:47:59;49.92;;;26.30;;
41687;SDS011;27371;42.686;23.362;2024-01-15T09:50:24;52.60;;;27.13;;
41687;SDS011;27371;42.686;23.362;2024-01-15T09:52:49;52.35;;;28.75;;
41687;SDS011;27371;42.686;23.362;2024-01-15T09:55:15;49.55;;;29.15;;
41687;SDS011;27371;42.686;23.362;2024-01-15T09:57:41;63.40;;;31.42;;
41687;SDS011;27371;42.686;23.362;2024-01-15T10:00:07;61.53;;;31.67;;
41687;SDS011;27371;42.686;23.362;2024-01-15T10:02:32;58.55;;;31.15;;
41687;SDS011;27371;42.686;23.362;2024-01-15T10:04:58;62.05;;;33.47;;
41687;SDS011;27371;42.686;23.362;2024-01-15T10:07:23;68.72;;;33.20;;
41687;SDS011;27371;42.686;23.362;2024-01-15T10:09:50;64.35;;;33.15;;
41687;SDS011;27371;42.686;23.362;2024-01-15T10:12:15;66.05;;;36.90;;
41687;SDS011;27371;42.686;23.362;2024-01-15T10:14:41;61.28;;;35.05;;
41687;SDS011;27371;42.686;23.362;2024-01-15T10:17:14;56.67;;;33.55;;
41687;SDS011;27371;42.686;23.362;2024-01-15T10:19:42;70.57;;;34.97;;
41687;SDS011;27371;42.686;23.362;2024-01-15T10:22:08;60.45;;;34.28;;
41687;SDS011;27371;42.686;23.362;2024-01-15T10:24:37;63.88;;;34.95;;
41687;SDS011;27371;42.686;23.362;2024-01-15T10:27:07;65.38;;;36.10;;
41687;SDS011;27371;42.686;23.362;2024-01-15T10:29:33;65.20;;;33.15;;
41687;SDS011;27371;42.686;23.362;2024-01-15T10:31:58;62.50;;;32.97;;
41687;SDS011;27371;42.686;23.362;2024-01-15T10:34:24;59.13;;;33.33;;
41687;SDS011;27371;42.686;23.362;2024-01-15T10:36:50;58.50;;;33.40;;
41687;SDS011;27371;42.686;23.362;2024-01-15T10:39:20;65.68;;;33.20;;
41687;SDS011;27371;42.686;23.362;2024-01-15T10:41:46;65.72;;;36.13;;
41687;SDS011;27371;42.686;23.362;2024-01-15T10:44:11;61.85;;;32.75;;
41687;SDS011;27371;42.686;23.362;2024-01-15T10:46:36;60.22;;;34.03;;
41687;SDS011;27371;42.686;23.362;2024-01-15T10:49:02;66.63;;;32.92;;
41687;SDS011;27371;42.686;23.362;2024-01-15T10:51:27;64.97;;;32.85;;
41687;SDS011;27371;42.686;23.362;2024-01-15T10:53:53;54.80;;;30.98;;
41687;SDS011;27371;42.686;23.362;2024-01-15T10:56:20;53.63;;;29.25;;
41687;SDS011;27371;42.686;23.362;2024-01-15T10:58:46;45.20;;;24.70;;
41687;SDS011;27371;42.686;23.362;2024-01-15T11:01:12;57.33;;;28.23;;
41687;SDS011;27371;42.686;23.362;2024-01-15T11:03:38;48.45;;;26.58;;
41687;SDS011;27371;42.686;23.362;2024-01-15T11:06:03;53.55;;;24.83;;
41687;SDS011;27371;42.686;23.362;2024-01-15T11:08:40;40.10;;;22.52;;
41687;SDS011;27371;42.686;23.362;2024-01-15T11:11:07;43.15;;;23.90;;
41687;SDS011;27371;42.686;23.362;2024-01-15T11:15:59;50.53;;;27.23;;
41687;SDS011;27371;42.686;23.362;2024-01-15T11:18:26;64.18;;;32.67;;
41687;SDS011;27371;42.686;23.362;2024-01-15T11:23:42;56.42;;;30.67;;
41687;SDS011;27371;42.686;23.362;2024-01-15T11:26:26;54.38;;;28.17;;
41687;SDS011;27371;42.686;23.362;2024-01-15T11:28:52;55.75;;;29.27;;
41687;SDS011;27371;42.686;23.362;2024-01-15T11:31:17;47.58;;;26.20;;
41687;SDS011;27371;42.686;23.362;2024-01-15T11:33:49;50.70;;;25.65;;
41687;SDS011;27371;42.686;23.362;2024-01-15T11:36:15;47.10;;;25.05;;
41687;SDS011;27371;42.686;23.362;2024-01-15T11:38:40;47.50;;;25.88;;
41687;SDS011;27371;42.686;23.362;2024-01-15T11:41:14;52.17;;;27.20;;
41687;SDS011;27371;42.686;23.362;2024-01-15T11:43:42;48.92;;;24.60;;
41687;SDS011;27371;42.686;23.362;2024-01-15T11:46:10;47.22;;;25.30;;
41687;SDS011;27371;42.686;23.362;2024-01-15T11:48:43;52.50;;;23.85;;
41687;SDS011;27371;42.686;23.362;2024-01-15T11:51:12;42.17;;;22.17;;
41687;SDS011;27371;42.686;23.362;2024-01-15T11:53:43;47.47;;;23.98;;
41687;SDS011;27371;42.686;23.362;2024-01-15T11:56:15;38.72;;;22.77;;
41687;SDS011;27371;42.686;23.362;2024-01-15T11:58:44;30.77;;;17.88;;
41687;SDS011;27371;42.686;23.362;2024-01-15T12:01:12;40.10;;;21.52;;
41687;SDS011;27371;42.686;23.362;2024-01-15T12:03:38;38.10;;;23.27;;
41687;SDS011;27371;42.686;23.362;2024-01-15T12:06:06;33.47;;;19.52;;
41687;SDS011;27371;42.686;23.362;2024-01-15T12:08:32;43.67;;;21.95;;
41687;SDS011;27371;42.686;23.362;2024-01-15T12:10:58;35.40;;;21.33;;
41687;SDS011;27371;42.686;23.362;2024-01-15T12:13:23;33.10;;;20.17;;
41687;SDS011;27371;42.686;23.362;2024-01-15T12:15:49;39.63;;;20.17;;
41687;SDS011;27371;42.686;23.362;2024-01-15T12:18:15;37.28;;;19.27;;
41687;SDS011;27371;42.686;23.362;2024-01-15T12:20:41;35.13;;;19.20;;
41687;SDS011;27371;42.686;23.362;2024-01-15T12:23:07;38.47;;;21.15;;
41687;SDS011;27371;42.686;23.362;2024-01-15T12:25:33;39.20;;;20.88;;
41687;SDS011;27371;42.686;23.362;2024-01-15T12:27:59;41.88;;;23.98;;
41687;SDS011;27371;42.686;23.362;2024-01-15T12:30:25;50.15;;;25.25;;
41687;SDS011;27371;42.686;23.362;2024-01-15T12:32:51;46.53;;;24.02;;
41687;SDS011;27371;42.686;23.362;2024-01-15T12:35:16;42.50;;;24.52;;
41687;SDS011;27371;42.686;23.362;2024-01-15T12:37:42;46.05;;;25.05;;
41687;SDS011;27371;42.686;23.362;2024-01-15T12:40:08;46.30;;;25.55;;
41687;SDS011;27371;42.686;23.362;2024-01-15T12:42:39;47.20;;;23.63;;
41687;SDS011;27371;42.686;23.362;2024-01-15T12:45:05;41.83;;;22.52;;
41687;SDS011;27371;42.686;23.362;2024-01-15T12:47:31;40.42;;;23.48;;
41687;SDS011;27371;42.686;23.362;2024-01-15T12:49:57;43.90;;;22.55;;
41687;SDS011;27371;42.686;23.362;2024-01-15T12:52:22;40.33;;;22.85;;
41687;SDS011;27371;42.686;23.362;2024-01-15T12:54:48;38.53;;;23.35;;
41687;SDS011;27371;42.686;23.362;2024-01-15T12:57:14;39.33;;;21.98;;
41687;SDS011;27371;42.686;23.362;2024-01-15T12:59:40;43.38;;;23.95;;
41687;SDS011;27371;42.686;23.362;2024-01-15T13:02:05;45.13;;;21.88;;
41687;SDS011;27371;42.686;23.362;2024-01-15T13:04:30;40.33;;;21.58;;
41687;SDS011;27371;42.686;23.362;2024-01-15T13:06:56;44.40;;;21.80;;
41687;SDS011;27371;42.686;23.362;2024-01-15T13:09:22;42.55;;;22.13;;
41687;SDS011;27371;42.686;23.362;2024-01-15T13:11:47;42.65;;;22.95;;
41687;SDS011;27371;42.686;23.362;2024-01-15T13:14:12;42.45;;;23.00;;
41687;SDS011;27371;42.686;23.362;2024-01-15T13:16:41;41.85;;;22.10;;
41687;SDS011;27371;42.686;23.362;2024-01-15T13:19:07;36.90;;;20.92;;
41687;SDS011;27371;42.686;23.362;2024-01-15T13:21:33;38.40;;;21.75;;
41687;SDS011;27371;42.686;23.362;2024-01-15T13:23:58;37.63;;;21.73;;
41687;SDS011;27371;42.686;23.362;2024-01-15T13:26:23;36.60;;;21.52;;
41687;SDS011;27371;42.686;23.362;2024-01-15T13:28:49;45.38;;;22.27;;
41687;SDS011;27371;42.686;23.362;2024-01-15T13:31:15;38.40;;;20.65;;
41687;SDS011;27371;42.686;23.362;2024-01-15T13:33:40;44.08;;;22.48;;
41687;SDS011;27371;42.686;23.362;2024-01-15T13:36:06;38.60;;;21.10;;
41687;SDS011;27371;42.686;23.362;2024-01-15T13:38:35;37.72;;;20.25;;
41687;SDS011;27371;42.686;23.362;2024-01-15T13:41:02;40.88;;;19.60;;
41687;SDS011;27371;42.686;23.362;2024-01-15T13:43:27;37.92;;;20.58;;
41687;SDS011;27371;42.686;23.362;2024-01-15T13:45:53;38.92;;;20.40;;
41687;SDS011;27371;42.686;23.362;2024-01-15T13:48:19;33.97;;;20.10;;
41687;SDS011;27371;42.686;23.362;2024-01-15T13:50:45;35.10;;;20.50;;
41687;SDS011;27371;42.686;23.362;2024-01-15T13:53:10;43.55;;;21.45;;
41687;SDS011;27371;42.686;23.362;2024-01-15T13:55:35;42.10;;;20.92;;
41687;SDS011;27371;42.686;23.362;2024-01-15T13:58:01;48.67;;;20.42;;
41687;SDS011;27371;42.686;23.362;2024-01-15T14:00:28;38.83;;;20.13;;
41687;SDS011;27371;42.686;23.362;2024-01-15T14:02:54;35.83;;;19.50;;
41687;SDS011;27371;42.686;23.362;2024-01-15T14:05:19;38.33;;;19.20;;
41687;SDS011;27371;42.686;23.362;2024-01-15T14:07:45;37.80;;;20.42;;
41687;SDS011;27371;42.686;23.362;2024-01-15T14:10:10;36.80;;;20.15;;
41687;SDS011;27371;42.686;23.362;2024-01-15T14:12:36;37.70;;;21.05;;